sensor_id;sensor_type;location;lat;lon;timestamp;temperature;humidity
22130;DHT22;11231;50.746;4.272;2024-03-02T00:00:07;7.60;99.90
22130;DHT22;11231;50.746;4.272;2024-03-02T00:02:43;7.60;99.90
22130;DHT22;11231;50.746;4.272;2024-03-02T00:05:18;7.40;99.90
22130;DHT22;11231;50.746;4.272;2024-03-02T00:07:45;7.40;99.90
22130;DHT22;11231;50.746;4.272;2024-03-02T00:10:16;7.30;99.90
22130;DHT22;11231;50.746;4.272;2024-03-02T00:12:47;7.30;99.90
22130;DHT22;11231;50.746;4.272;2024-03-02T00:15:39;7.40;99.90
22130;DHT22;11231;50.746;4.272;2024-03-02T00:18:08;7.40;99.90
22130;DHT22;11231;50.746;4.272;2024-03-02T00:20:33;7.40;99.90
22130;DHT22;11231;50.746;4.272;2024-03-02T00:23:07;7.40;99.90
22130;DHT22;11231;50.746;4.272;2024-03-02T00:25:43;7.50;99.90
22130;DHT22;11231;50.746;4.272;2024-03-02T00:28:24;7.50;99.90
22130;DHT22;11231;50.746;4.272;2024-03-02T00:33:23;7.30;99.90
22130;DHT22;11231;50.746;4.272;2024-03-02T00:35:49;7.20;99.90
22130;DHT22;11231;50.746;4.272;2024-03-02T00:38:15;7.30;99.90
22130;DHT22;11231;50.746;4.272;2024-03-02T00:40:42;7.30;99.90
22130;DHT22;11231;50.746;4.272;2024-03-02T00:45:49;7.40;99.90
22130;DHT22;11231;50.746;4.272;2024-03-02T00:48:16;7.40;99.90
22130;DHT22;11231;50.746;4.272;2024-03-02T00:50:42;7.40;99.90
22130;DHT22;11231;50.746;4.272;2024-03-02T00:53:10;7.40;99.90
22130;DHT22;11231;50.746;4.272;2024-03-02T00:55:38;7.30;99.90
22130;DHT22;11231;50.746;4.272;2024-03-02T00:58:03;7.30;99.90
22130;DHT22;11231;50.746;4.272;2024-03-02T01:00:29;7.30;99.90
22130;DHT22;11231;50.746;4.272;2024-03-02T01:02:55;7.50;99.90
22130;DHT22;11231;50.746;4.272;2024-03-02T01:05:20;7.50;99.90
22130;DHT22;11231;50.746;4.272;2024-03-02T01:07:46;7.50;99.90
22130;DHT22;11231;50.746;4.272;2024-03-02T01:10:12;7.60;99.90
22130;DHT22;11231;50.746;4.272;2024-03-02T01:12:38;7.70;99.90
22130;DHT22;11231;50.746;4.272;2024-03-02T01:15:04;7.50;99.90
22130;DHT22;11231;50.746;4.272;2024-03-02T01:17:33;7.40;99.90
22130;DHT22;11231;50.746;4.272;2024-03-02T01:19:59;7.40;99.90
22130;DHT22;11231;50.746;4.272;2024-03-02T01:22:25;7.50;99.90
22130;DHT22;11231;50.746;4.272;2024-03-02T01:24:51;7.50;99.90
22130;DHT22;11231;50.746;4.272;2024-03-02T01:27:17;7.50;99.90
22130;DHT22;11231;50.746;4.272;2024-03-02T01:29:42;7.40;99.90
22130;DHT22;11231;50.746;4.272;2024-03-02T01:32:08;7.40;99.90
22130;DHT22;11231;50.746;4.272;2024-03-02T01:34:34;7.40;99.90
22130;DHT22;11231;50.746;4.272;2024-03-02T01:37:00;7.30;99.90
22130;DHT22;11231;50.746;4.272;2024-03-02T01:39:25;7.40;99.90
22130;DHT22;11231;50.746;4.272;2024-03-02T01:41:51;7.40;99.90
22130;DHT22;11231;50.746;4.272;2024-03-02T01:44:17;7.50;99.90
22130;DHT22;11231;50.746;4.272;2024-03-02T01:46:43;7.50;99.90
22130;DHT22;11231;50.746;4.272;2024-03-02T01:49:08;7.60;99.90
22130;DHT22;11231;50.746;4.272;2024-03-02T01:51:34;7.60;99.90
22130;DHT22;11231;50.746;4.272;2024-03-02T01:54:00;7.60;99.90
22130;DHT22;11231;50.746;4.272;2024-03-02T01:56:26;7.70;99.90
22130;DHT22;11231;50.746;4.272;2024-03-02T01:58:51;7.60;99.90
22130;DHT22;11231;50.746;4.272;2024-03-02T02:01:17;7.70;99.90
22130;DHT22;11231;50.746;4.272;2024-03-02T02:03:44;7.70;99.90
22130;DHT22;11231;50.746;4.272;2024-03-02T02:06:10;7.70;99.90
22130;DHT22;11231;50.746;4.272;2024-03-02T02:08:37;7.70;99.90
22130;DHT22;11231;50.746;4.272;2024-03-02T02:11:03;7.80;99.90
22130;DHT22;11231;50.746;4.272;2024-03-02T02:13:29;7.80;99.90
22130;DHT22;11231;50.746;4.272;2024-03-02T02:15:54;7.70;99.90
22130;DHT22;11231;50.746;4.272;2024-03-02T02:18:20;7.70;99.90
22130;DHT22;11231;50.746;4.272;2024-03-02T02:20:46;7.70;99.90
22130;DHT22;11231;50.746;4.272;2024-03-02T02:23:11;7.70;99.90
22130;DHT22;11231;50.746;4.272;2024-03-02T02:25:39;7.70;99.90
22130;DHT22;11231;50.746;4.272;2024-03-02T02:28:04;7.70;99.90
22130;DHT22;11231;50.746;4.272;2024-03-02T02:30:31;7.70;99.90
22130;DHT22;11231;50.746;4.272;2024-03-02T02:32:58;7.70;99.90
22130;DHT22;11231;50.746;4.272;2024-03-02T02:35:24;7.60;99.90
22130;DHT22;11231;50.746;4.272;2024-03-02T02:37:50;7.50;99.90
22130;DHT22;11231;50.746;4.272;2024-03-02T02:40:17;7.50;99.90
22130;DHT22;11231;50.746;4.272;2024-03-02T02:42:44;7.40;99.90
22130;DHT22;11231;50.746;4.272;2024-03-02T02:45:10;7.40;99.90
22130;DHT22;11231;50.746;4.272;2024-03-02T02:47:38;7.40;99.90
22130;DHT22;11231;50.746;4.272;2024-03-02T02:50:06;7.30;99.90
22130;DHT22;11231;50.746;4.272;2024-03-02T02:52:36;7.20;99.90
22130;DHT22;11231;50.746;4.272;2024-03-02T02:55:06;7.20;99.90
22130;DHT22;11231;50.746;4.272;2024-03-02T02:57:33;7.10;99.90
22130;DHT22;11231;50.746;4.272;2024-03-02T03:00:05;7.20;99.90
22130;DHT22;11231;50.746;4.272;2024-03-02T03:02:36;7.00;99.90
22130;DHT22;11231;50.746;4.272;2024-03-02T03:05:03;7.20;99.90
22130;DHT22;11231;50.746;4.272;2024-03-02T03:07:29;7.10;99.90
22130;DHT22;11231;50.746;4.272;2024-03-02T03:09:54;7.10;99.90
22130;DHT22;11231;50.746;4.272;2024-03-02T03:12:20;7.10;99.90
22130;DHT22;11231;50.746;4.272;2024-03-02T03:14:46;7.20;99.90
22130;DHT22;11231;50.746;4.272;2024-03-02T03:17:12;7.20;99.90
22130;DHT22;11231;50.746;4.272;2024-03-02T03:19:38;7.20;99.90
22130;DHT22;11231;50.746;4.272;2024-03-02T03:22:04;7.30;99.90
22130;DHT22;11231;50.746;4.272;2024-03-02T03:24:30;7.30;99.90
22130;DHT22;11231;50.746;4.272;2024-03-02T03:26:55;7.30;99.90
22130;DHT22;11231;50.746;4.272;2024-03-02T03:29:21;7.30;99.90
22130;DHT22;11231;50.746;4.272;2024-03-02T03:31:47;7.40;99.90
22130;DHT22;11231;50.746;4.272;2024-03-02T03:34:12;7.50;99.90
22130;DHT22;11231;50.746;4.272;2024-03-02T03:36:41;7.60;99.90
22130;DHT22;11231;50.746;4.272;2024-03-02T03:39:07;7.70;99.90
22130;DHT22;11231;50.746;4.272;2024-03-02T03:41:33;7.70;99.90
22130;DHT22;11231;50.746;4.272;2024-03-02T03:43:59;7.80;99.90
22130;DHT22;11231;50.746;4.272;2024-03-02T03:46:24;7.80;99.90
22130;DHT22;11231;50.746;4.272;2024-03-02T03:48:50;7.80;99.90
22130;DHT22;11231;50.746;4.272;2024-03-02T03:51:16;7.80;99.90
22130;DHT22;11231;50.746;4.272;2024-03-02T03:53:41;7.80;99.90
22130;DHT22;11231;50.746;4.272;2024-03-02T03:56:07;7.90;99.90
22130;DHT22;11231;50.746;4.272;2024-03-02T03:58:33;7.90;99.90
22130;DHT22;11231;50.746;4.272;2024-03-02T04:00:58;7.80;99.90
22130;DHT22;11231;50.746;4.272;2024-03-02T04:03:24;7.80;99.90
22130;DHT22;11231;50.746;4.272;2024-03-02T04:05:50;7.70;99.90
22130;DHT22;11231;50.746;4.272;2024-03-02T04:08:16;7.80;99.90
22130;DHT22;11231;50.746;4.272;2024-03-02T04:10:42;7.80;99.90
22130;DHT22;11231;50.746;4.272;2024-03-02T04:13:08;7.70;99.90
22130;DHT22;11231;50.746;4.272;2024-03-02T04:15:34;7.70;99.90
22130;DHT22;11231;50.746;4.272;2024-03-02T04:17:59;7.70;99.90
22130;DHT22;11231;50.746;4.272;2024-03-02T04:20:25;7.70;99.90
22130;DHT22;11231;50.746;4.272;2024-03-02T04:22:51;7.60;99.90
22130;DHT22;11231;50.746;4.272;2024-03-02T04:25:16;7.80;99.90
22130;DHT22;11231;50.746;4.272;2024-03-02T04:27:42;7.80;99.90
22130;DHT22;11231;50.746;4.272;2024-03-02T04:30:08;7.80;99.90
22130;DHT22;11231;50.746;4.272;2024-03-02T04:32:34;7.80;99.90
22130;DHT22;11231;50.746;4.272;2024-03-02T04:35:01;8.00;99.90
22130;DHT22;11231;50.746;4.272;2024-03-02T04:37:27;8.10;99.90
22130;DHT22;11231;50.746;4.272;2024-03-02T04:39:53;8.10;99.90
22130;DHT22;11231;50.746;4.272;2024-03-02T04:42:19;7.80;99.90
22130;DHT22;11231;50.746;4.272;2024-03-02T04:44:45;7.60;99.90
22130;DHT22;11231;50.746;4.272;2024-03-02T04:47:10;7.50;99.90
22130;DHT22;11231;50.746;4.272;2024-03-02T04:49:36;7.40;99.90
22130;DHT22;11231;50.746;4.272;2024-03-02T04:52:02;7.40;99.90
22130;DHT22;11231;50.746;4.272;2024-03-02T04:54:28;7.40;99.90
22130;DHT22;11231;50.746;4.272;2024-03-02T04:56:53;7.40;99.90
22130;DHT22;11231;50.746;4.272;2024-03-02T04:59:20;7.30;99.90
22130;DHT22;11231;50.746;4.272;2024-03-02T05:01:46;7.30;99.90
22130;DHT22;11231;50.746;4.272;2024-03-02T05:04:12;7.30;99.90
22130;DHT22;11231;50.746;4.272;2024-03-02T05:06:39;7.20;99.90
22130;DHT22;11231;50.746;4.272;2024-03-02T05:09:08;7.10;99.90
22130;DHT22;11231;50.746;4.272;2024-03-02T05:11:34;7.00;99.90
22130;DHT22;11231;50.746;4.272;2024-03-02T05:14:06;6.90;99.90
22130;DHT22;11231;50.746;4.272;2024-03-02T05:16:37;6.90;99.90
22130;DHT22;11231;50.746;4.272;2024-03-02T05:19:07;6.80;99.90
22130;DHT22;11231;50.746;4.272;2024-03-02T05:21:34;6.80;99.90
22130;DHT22;11231;50.746;4.272;2024-03-02T05:24:00;6.90;99.90
22130;DHT22;11231;50.746;4.272;2024-03-02T05:26:25;6.90;99.90
22130;DHT22;11231;50.746;4.272;2024-03-02T05:28:51;6.80;99.90
22130;DHT22;11231;50.746;4.272;2024-03-02T05:31:17;6.80;99.90
22130;DHT22;11231;50.746;4.272;2024-03-02T05:33:43;6.80;99.90
22130;DHT22;11231;50.746;4.272;2024-03-02T05:36:09;6.70;99.90
22130;DHT22;11231;50.746;4.272;2024-03-02T05:38:35;6.70;99.90
22130;DHT22;11231;50.746;4.272;2024-03-02T05:41:01;6.60;99.90
22130;DHT22;11231;50.746;4.272;2024-03-02T05:43:27;6.60;99.90
22130;DHT22;11231;50.746;4.272;2024-03-02T05:45:53;6.60;99.90
22130;DHT22;11231;50.746;4.272;2024-03-02T05:48:18;6.70;99.90
22130;DHT22;11231;50.746;4.272;2024-03-02T05:50:44;6.70;99.90
22130;DHT22;11231;50.746;4.272;2024-03-02T05:53:10;6.80;99.90
22130;DHT22;11231;50.746;4.272;2024-03-02T05:55:35;6.70;99.90
22130;DHT22;11231;50.746;4.272;2024-03-02T05:58:01;6.70;99.90
22130;DHT22;11231;50.746;4.272;2024-03-02T06:00:46;6.70;99.90
22130;DHT22;11231;50.746;4.272;2024-03-02T06:03:12;6.70;99.90
22130;DHT22;11231;50.746;4.272;2024-03-02T06:05:37;6.70;99.90
22130;DHT22;11231;50.746;4.272;2024-03-02T06:08:03;6.60;99.90
22130;DHT22;11231;50.746;4.272;2024-03-02T06:10:29;6.60;99.90
22130;DHT22;11231;50.746;4.272;2024-03-02T06:12:55;6.60;99.90
22130;DHT22;11231;50.746;4.272;2024-03-02T06:15:20;6.60;99.90
22130;DHT22;11231;50.746;4.272;2024-03-02T06:17:46;6.60;99.90
22130;DHT22;11231;50.746;4.272;2024-03-02T06:20:12;6.50;99.90
22130;DHT22;11231;50.746;4.272;2024-03-02T06:22:38;6.50;99.90
22130;DHT22;11231;50.746;4.272;2024-03-02T06:25:04;6.50;99.90
22130;DHT22;11231;50.746;4.272;2024-03-02T06:27:29;6.50;99.90
22130;DHT22;11231;50.746;4.272;2024-03-02T06:29:55;6.50;99.90
22130;DHT22;11231;50.746;4.272;2024-03-02T06:32:21;6.50;99.90
22130;DHT22;11231;50.746;4.272;2024-03-02T06:34:48;6.50;99.90
22130;DHT22;11231;50.746;4.272;2024-03-02T06:37:14;6.50;99.90
22130;DHT22;11231;50.746;4.272;2024-03-02T06:39:41;6.50;99.90
22130;DHT22;11231;50.746;4.272;2024-03-02T06:42:07;6.60;99.90
22130;DHT22;11231;50.746;4.272;2024-03-02T06:44:32;6.60;99.90
22130;DHT22;11231;50.746;4.272;2024-03-02T06:46:59;6.60;99.90
22130;DHT22;11231;50.746;4.272;2024-03-02T06:49:25;6.60;99.90
22130;DHT22;11231;50.746;4.272;2024-03-02T06:51:50;6.60;99.90
22130;DHT22;11231;50.746;4.272;2024-03-02T06:54:16;6.60;99.90
22130;DHT22;11231;50.746;4.272;2024-03-02T06:56:42;6.60;99.90
22130;DHT22;11231;50.746;4.272;2024-03-02T06:59:08;6.70;99.90
22130;DHT22;11231;50.746;4.272;2024-03-02T07:01:33;6.70;99.90
22130;DHT22;11231;50.746;4.272;2024-03-02T07:04:00;6.80;99.90
22130;DHT22;11231;50.746;4.272;2024-03-02T07:06:25;6.90;99.90
22130;DHT22;11231;50.746;4.272;2024-03-02T07:08:51;7.00;99.90
22130;DHT22;11231;50.746;4.272;2024-03-02T07:11:17;7.00;99.90
22130;DHT22;11231;50.746;4.272;2024-03-02T07:13:42;6.90;99.90
22130;DHT22;11231;50.746;4.272;2024-03-02T07:16:08;6.90;99.90
22130;DHT22;11231;50.746;4.272;2024-03-02T07:18:52;6.90;99.90
22130;DHT22;11231;50.746;4.272;2024-03-02T07:21:18;7.00;99.90
22130;DHT22;11231;50.746;4.272;2024-03-02T07:23:44;7.40;99.90
22130;DHT22;11231;50.746;4.272;2024-03-02T07:26:10;8.00;99.90
22130;DHT22;11231;50.746;4.272;2024-03-02T07:28:35;8.10;99.90
22130;DHT22;11231;50.746;4.272;2024-03-02T07:31:02;8.80;99.90
22130;DHT22;11231;50.746;4.272;2024-03-02T07:33:30;8.80;99.90
22130;DHT22;11231;50.746;4.272;2024-03-02T07:35:56;8.90;99.90
22130;DHT22;11231;50.746;4.272;2024-03-02T07:38:23;9.10;99.90
22130;DHT22;11231;50.746;4.272;2024-03-02T07:40:49;9.30;99.90
22130;DHT22;11231;50.746;4.272;2024-03-02T07:43:19;9.00;99.90
22130;DHT22;11231;50.746;4.272;2024-03-02T07:45:46;8.60;99.90
22130;DHT22;11231;50.746;4.272;2024-03-02T07:48:12;8.40;99.90
22130;DHT22;11231;50.746;4.272;2024-03-02T07:50:38;8.20;99.90
22130;DHT22;11231;50.746;4.272;2024-03-02T07:53:05;8.00;99.90
22130;DHT22;11231;50.746;4.272;2024-03-02T07:55:31;8.00;99.90
22130;DHT22;11231;50.746;4.272;2024-03-02T07:57:57;8.10;99.90
22130;DHT22;11231;50.746;4.272;2024-03-02T08:00:23;8.00;99.90
22130;DHT22;11231;50.746;4.272;2024-03-02T08:02:50;8.10;99.90
22130;DHT22;11231;50.746;4.272;2024-03-02T08:05:19;8.00;99.90
22130;DHT22;11231;50.746;4.272;2024-03-02T08:07:46;8.10;99.90
22130;DHT22;11231;50.746;4.272;2024-03-02T08:10:12;8.10;99.90
22130;DHT22;11231;50.746;4.272;2024-03-02T08:12:38;8.10;99.90
22130;DHT22;11231;50.746;4.272;2024-03-02T08:15:04;8.20;99.90
22130;DHT22;11231;50.746;4.272;2024-03-02T08:17:30;8.30;99.90
22130;DHT22;11231;50.746;4.272;2024-03-02T08:19:56;8.40;99.90
22130;DHT22;11231;50.746;4.272;2024-03-02T08:22:23;8.50;99.90
22130;DHT22;11231;50.746;4.272;2024-03-02T08:24:51;8.40;99.90
22130;DHT22;11231;50.746;4.272;2024-03-02T08:27:17;8.30;99.90
22130;DHT22;11231;50.746;4.272;2024-03-02T08:29:43;8.50;99.90
22130;DHT22;11231;50.746;4.272;2024-03-02T08:32:08;8.50;99.90
22130;DHT22;11231;50.746;4.272;2024-03-02T08:34:34;8.40;99.90
22130;DHT22;11231;50.746;4.272;2024-03-02T08:37:03;8.60;99.90
22130;DHT22;11231;50.746;4.272;2024-03-02T08:39:29;8.60;99.90
22130;DHT22;11231;50.746;4.272;2024-03-02T08:41:55;8.70;99.90
22130;DHT22;11231;50.746;4.272;2024-03-02T08:44:21;8.80;99.90
22130;DHT22;11231;50.746;4.272;2024-03-02T08:46:47;8.70;99.90
22130;DHT22;11231;50.746;4.272;2024-03-02T08:49:13;8.70;99.90
22130;DHT22;11231;50.746;4.272;2024-03-02T08:51:38;8.70;99.90
22130;DHT22;11231;50.746;4.272;2024-03-02T08:54:04;8.90;99.90
22130;DHT22;11231;50.746;4.272;2024-03-02T08:56:31;9.20;99.90
22130;DHT22;11231;50.746;4.272;2024-03-02T08:58:57;9.20;99.90
22130;DHT22;11231;50.746;4.272;2024-03-02T09:01:23;9.20;99.90
22130;DHT22;11231;50.746;4.272;2024-03-02T09:03:49;9.20;99.90
22130;DHT22;11231;50.746;4.272;2024-03-02T09:06:15;9.20;99.90
22130;DHT22;11231;50.746;4.272;2024-03-02T09:08:45;9.20;99.90
22130;DHT22;11231;50.746;4.272;2024-03-02T09:11:11;9.20;99.90
22130;DHT22;11231;50.746;4.272;2024-03-02T09:13:38;9.40;99.90
22130;DHT22;11231;50.746;4.272;2024-03-02T09:16:04;9.40;99.90
22130;DHT22;11231;50.746;4.272;2024-03-02T09:18:31;9.60;99.90
22130;DHT22;11231;50.746;4.272;2024-03-02T09:20:57;9.80;99.90
22130;DHT22;11231;50.746;4.272;2024-03-02T09:23:22;9.80;99.90
22130;DHT22;11231;50.746;4.272;2024-03-02T09:25:48;9.80;99.90
22130;DHT22;11231;50.746;4.272;2024-03-02T09:28:17;10.00;99.90
22130;DHT22;11231;50.746;4.272;2024-03-02T09:30:43;10.10;99.90
22130;DHT22;11231;50.746;4.272;2024-03-02T09:33:08;10.30;99.90
22130;DHT22;11231;50.746;4.272;2024-03-02T09:35:34;10.40;99.90
22130;DHT22;11231;50.746;4.272;2024-03-02T09:38:00;10.60;99.90
22130;DHT22;11231;50.746;4.272;2024-03-02T09:40:25;10.80;99.90
22130;DHT22;11231;50.746;4.272;2024-03-02T09:42:51;10.90;99.90
22130;DHT22;11231;50.746;4.272;2024-03-02T09:45:23;10.80;99.90
22130;DHT22;11231;50.746;4.272;2024-03-02T09:47:50;10.70;99.90
22130;DHT22;11231;50.746;4.272;2024-03-02T09:50:16;10.70;99.90
22130;DHT22;11231;50.746;4.272;2024-03-02T09:52:48;10.90;99.90
22130;DHT22;11231;50.746;4.272;2024-03-02T09:55:15;11.10;99.90
22130;DHT22;11231;50.746;4.272;2024-03-02T09:57:42;11.30;99.90
22130;DHT22;11231;50.746;4.272;2024-03-02T10:00:09;11.80;99.90
22130;DHT22;11231;50.746;4.272;2024-03-02T10:02:40;12.20;99.90
22130;DHT22;11231;50.746;4.272;2024-03-02T10:05:08;12.00;99.90
22130;DHT22;11231;50.746;4.272;2024-03-02T10:07:34;12.10;99.90
22130;DHT22;11231;50.746;4.272;2024-03-02T10:10:15;11.90;99.90
22130;DHT22;11231;50.746;4.272;2024-03-02T10:12:41;12.00;99.90
22130;DHT22;11231;50.746;4.272;2024-03-02T10:15:07;12.20;99.90
22130;DHT22;11231;50.746;4.272;2024-03-02T10:17:34;12.40;99.90
22130;DHT22;11231;50.746;4.272;2024-03-02T10:20:26;12.40;99.90
22130;DHT22;11231;50.746;4.272;2024-03-02T10:23:09;13.00;99.90
22130;DHT22;11231;50.746;4.272;2024-03-02T10:25:35;13.90;99.90
22130;DHT22;11231;50.746;4.272;2024-03-02T10:28:01;14.20;99.90
22130;DHT22;11231;50.746;4.272;2024-03-02T10:30:27;14.10;99.90
22130;DHT22;11231;50.746;4.272;2024-03-02T10:32:56;13.90;99.90
22130;DHT22;11231;50.746;4.272;2024-03-02T10:35:22;13.90;99.90
22130;DHT22;11231;50.746;4.272;2024-03-02T10:37:49;14.30;99.90
22130;DHT22;11231;50.746;4.272;2024-03-02T10:40:16;14.50;99.90
22130;DHT22;11231;50.746;4.272;2024-03-02T10:42:42;14.00;99.90
22130;DHT22;11231;50.746;4.272;2024-03-02T10:45:10;13.40;99.90
22130;DHT22;11231;50.746;4.272;2024-03-02T10:47:38;12.90;99.90
22130;DHT22;11231;50.746;4.272;2024-03-02T10:50:05;12.90;99.90
22130;DHT22;11231;50.746;4.272;2024-03-02T10:52:37;12.80;99.90
22130;DHT22;11231;50.746;4.272;2024-03-02T10:55:05;12.60;99.90
22130;DHT22;11231;50.746;4.272;2024-03-02T10:57:51;12.50;99.90
22130;DHT22;11231;50.746;4.272;2024-03-02T11:00:18;12.40;99.90
22130;DHT22;11231;50.746;4.272;2024-03-02T11:02:52;12.50;99.90
22130;DHT22;11231;50.746;4.272;2024-03-02T11:05:28;12.50;99.90
22130;DHT22;11231;50.746;4.272;2024-03-02T11:08:08;12.60;99.90
22130;DHT22;11231;50.746;4.272;2024-03-02T11:10:58;12.70;99.90
22130;DHT22;11231;50.746;4.272;2024-03-02T11:13:32;12.50;99.90
22130;DHT22;11231;50.746;4.272;2024-03-02T11:16:06;12.70;99.90
22130;DHT22;11231;50.746;4.272;2024-03-02T11:18:35;13.00;99.90
22130;DHT22;11231;50.746;4.272;2024-03-02T11:21:03;12.90;99.90
22130;DHT22;11231;50.746;4.272;2024-03-02T11:23:32;12.60;99.90
22130;DHT22;11231;50.746;4.272;2024-03-02T11:26:18;12.80;99.90
22130;DHT22;11231;50.746;4.272;2024-03-02T11:28:44;12.60;99.90
22130;DHT22;11231;50.746;4.272;2024-03-02T11:31:10;12.50;99.90
22130;DHT22;11231;50.746;4.272;2024-03-02T11:33:36;12.60;99.90
22130;DHT22;11231;50.746;4.272;2024-03-02T11:36:02;12.70;99.90
22130;DHT22;11231;50.746;4.272;2024-03-02T11:38:30;12.90;99.90
22130;DHT22;11231;50.746;4.272;2024-03-02T11:40:59;12.80;99.90
22130;DHT22;11231;50.746;4.272;2024-03-02T11:43:27;12.80;99.90
22130;DHT22;11231;50.746;4.272;2024-03-02T11:46:11;13.00;99.90
22130;DHT22;11231;50.746;4.272;2024-03-02T11:48:39;13.40;99.90
22130;DHT22;11231;50.746;4.272;2024-03-02T11:51:05;14.20;99.90
22130;DHT22;11231;50.746;4.272;2024-03-02T11:53:31;14.60;99.90
22130;DHT22;11231;50.746;4.272;2024-03-02T11:55:58;14.50;99.90
22130;DHT22;11231;50.746;4.272;2024-03-02T11:58:24;14.60;99.90
22130;DHT22;11231;50.746;4.272;2024-03-02T12:00:52;14.30;99.90
22130;DHT22;11231;50.746;4.272;2024-03-02T12:03:22;14.00;99.90
22130;DHT22;11231;50.746;4.272;2024-03-02T12:05:54;13.50;99.90
22130;DHT22;11231;50.746;4.272;2024-03-02T12:08:20;13.50;99.90
22130;DHT22;11231;50.746;4.272;2024-03-02T12:11:00;13.40;99.90
22130;DHT22;11231;50.746;4.272;2024-03-02T12:13:26;13.30;99.90
22130;DHT22;11231;50.746;4.272;2024-03-02T12:15:55;13.50;99.90
22130;DHT22;11231;50.746;4.272;2024-03-02T12:18:24;13.70;99.90
22130;DHT22;11231;50.746;4.272;2024-03-02T12:20:51;13.70;99.90
22130;DHT22;11231;50.746;4.272;2024-03-02T12:23:28;14.20;99.90
22130;DHT22;11231;50.746;4.272;2024-03-02T12:25:53;14.30;99.90
22130;DHT22;11231;50.746;4.272;2024-03-02T12:28:20;14.40;99.90
22130;DHT22;11231;50.746;4.272;2024-03-02T12:30:45;14.30;99.90
22130;DHT22;11231;50.746;4.272;2024-03-02T12:33:13;14.00;99.90
22130;DHT22;11231;50.746;4.272;2024-03-02T12:35:38;14.20;99.90
22130;DHT22;11231;50.746;4.272;2024-03-02T12:38:05;14.40;99.90
22130;DHT22;11231;50.746;4.272;2024-03-02T12:40:31;14.30;99.90
22130;DHT22;11231;50.746;4.272;2024-03-02T12:42:57;14.20;99.90
22130;DHT22;11231;50.746;4.272;2024-03-02T12:45:23;14.00;99.90
22130;DHT22;11231;50.746;4.272;2024-03-02T12:47:51;14.10;99.90
22130;DHT22;11231;50.746;4.272;2024-03-02T12:50:18;14.00;99.90
22130;DHT22;11231;50.746;4.272;2024-03-02T12:52:51;13.90;99.90
22130;DHT22;11231;50.746;4.272;2024-03-02T12:55:17;13.80;99.90
22130;DHT22;11231;50.746;4.272;2024-03-02T12:57:44;13.90;99.90
22130;DHT22;11231;50.746;4.272;2024-03-02T13:00:10;14.00;99.90
22130;DHT22;11231;50.746;4.272;2024-03-02T13:02:39;13.90;99.90
22130;DHT22;11231;50.746;4.272;2024-03-02T13:05:07;13.70;99.90
22130;DHT22;11231;50.746;4.272;2024-03-02T13:07:37;13.40;99.90
22130;DHT22;11231;50.746;4.272;2024-03-02T13:10:03;13.40;99.90
22130;DHT22;11231;50.746;4.272;2024-03-02T13:12:30;13.20;99.90
22130;DHT22;11231;50.746;4.272;2024-03-02T13:14:58;13.20;99.90
22130;DHT22;11231;50.746;4.272;2024-03-02T13:17:24;13.30;99.90
22130;DHT22;11231;50.746;4.272;2024-03-02T13:19:57;13.40;99.90
22130;DHT22;11231;50.746;4.272;2024-03-02T13:22:23;13.60;99.90
22130;DHT22;11231;50.746;4.272;2024-03-02T13:24:50;14.00;99.90
22130;DHT22;11231;50.746;4.272;2024-03-02T13:27:16;14.00;99.90
22130;DHT22;11231;50.746;4.272;2024-03-02T13:29:45;13.80;99.90
22130;DHT22;11231;50.746;4.272;2024-03-02T13:32:12;13.70;99.90
22130;DHT22;11231;50.746;4.272;2024-03-02T13:34:38;13.70;99.90
22130;DHT22;11231;50.746;4.272;2024-03-02T13:37:03;13.70;99.90
22130;DHT22;11231;50.746;4.272;2024-03-02T13:39:31;13.70;99.90
22130;DHT22;11231;50.746;4.272;2024-03-02T13:41:58;13.70;99.90
22130;DHT22;11231;50.746;4.272;2024-03-02T13:44:30;13.70;99.90
22130;DHT22;11231;50.746;4.272;2024-03-02T13:46:56;14.00;99.90
22130;DHT22;11231;50.746;4.272;2024-03-02T13:49:24;14.10;99.90
22130;DHT22;11231;50.746;4.272;2024-03-02T13:51:49;14.20;99.90
22130;DHT22;11231;50.746;4.272;2024-03-02T13:54:15;14.20;99.90
22130;DHT22;11231;50.746;4.272;2024-03-02T13:56:41;14.00;99.90
22130;DHT22;11231;50.746;4.272;2024-03-02T13:59:08;13.90;99.90
22130;DHT22;11231;50.746;4.272;2024-03-02T14:01:34;13.90;99.90
22130;DHT22;11231;50.746;4.272;2024-03-02T14:04:00;13.80;99.90
22130;DHT22;11231;50.746;4.272;2024-03-02T14:06:26;14.00;99.90
22130;DHT22;11231;50.746;4.272;2024-03-02T14:08:53;13.90;99.90
22130;DHT22;11231;50.746;4.272;2024-03-02T14:11:19;13.70;99.90
22130;DHT22;11231;50.746;4.272;2024-03-02T14:13:45;13.70;99.90
22130;DHT22;11231;50.746;4.272;2024-03-02T14:16:15;13.60;99.90
22130;DHT22;11231;50.746;4.272;2024-03-02T14:18:41;13.60;99.90
22130;DHT22;11231;50.746;4.272;2024-03-02T14:21:08;13.40;99.90
22130;DHT22;11231;50.746;4.272;2024-03-02T14:23:33;13.30;99.90
22130;DHT22;11231;50.746;4.272;2024-03-02T14:25:59;13.40;99.90
22130;DHT22;11231;50.746;4.272;2024-03-02T14:28:25;13.50;99.90
22130;DHT22;11231;50.746;4.272;2024-03-02T14:30:51;13.80;99.90
22130;DHT22;11231;50.746;4.272;2024-03-02T14:33:17;13.90;99.90
22130;DHT22;11231;50.746;4.272;2024-03-02T14:35:44;13.80;99.90
22130;DHT22;11231;50.746;4.272;2024-03-02T14:38:11;13.70;99.90
22130;DHT22;11231;50.746;4.272;2024-03-02T14:40:37;13.80;99.90
22130;DHT22;11231;50.746;4.272;2024-03-02T14:43:04;13.80;99.90
22130;DHT22;11231;50.746;4.272;2024-03-02T14:45:30;13.80;99.90
22130;DHT22;11231;50.746;4.272;2024-03-02T14:47:56;13.90;99.90
22130;DHT22;11231;50.746;4.272;2024-03-02T14:50:26;13.90;99.90
22130;DHT22;11231;50.746;4.272;2024-03-02T14:52:52;13.90;99.90
22130;DHT22;11231;50.746;4.272;2024-03-02T14:55:17;13.70;99.90
22130;DHT22;11231;50.746;4.272;2024-03-02T14:57:43;13.70;99.90
22130;DHT22;11231;50.746;4.272;2024-03-02T15:00:09;13.80;99.90
22130;DHT22;11231;50.746;4.272;2024-03-02T15:02:37;13.90;99.90
22130;DHT22;11231;50.746;4.272;2024-03-02T15:05:04;13.70;99.90
22130;DHT22;11231;50.746;4.272;2024-03-02T15:07:31;13.40;99.90
22130;DHT22;11231;50.746;4.272;2024-03-02T15:09:57;13.30;99.90
22130;DHT22;11231;50.746;4.272;2024-03-02T15:12:23;13.10;99.90
22130;DHT22;11231;50.746;4.272;2024-03-02T15:14:49;12.90;99.90
22130;DHT22;11231;50.746;4.272;2024-03-02T15:17:15;12.80;99.90
22130;DHT22;11231;50.746;4.272;2024-03-02T15:19:45;13.00;99.90
22130;DHT22;11231;50.746;4.272;2024-03-02T15:22:11;13.10;99.90
22130;DHT22;11231;50.746;4.272;2024-03-02T15:24:37;12.90;99.90
22130;DHT22;11231;50.746;4.272;2024-03-02T15:27:04;12.90;99.90
22130;DHT22;11231;50.746;4.272;2024-03-02T15:29:34;13.00;99.90
22130;DHT22;11231;50.746;4.272;2024-03-02T15:32:00;12.90;99.90
22130;DHT22;11231;50.746;4.272;2024-03-02T15:34:26;12.90;99.90
22130;DHT22;11231;50.746;4.272;2024-03-02T15:36:52;12.90;99.90
22130;DHT22;11231;50.746;4.272;2024-03-02T15:39:18;12.90;99.90
22130;DHT22;11231;50.746;4.272;2024-03-02T15:41:44;13.00;99.90
22130;DHT22;11231;50.746;4.272;2024-03-02T15:44:10;13.00;99.90